createdAt,value
2023-04-02T00:02:32.191Z,2.13
2023-04-02T00:05:50.507Z,1.40
2023-04-02T00:08:29.346Z,1.80
2023-04-02T00:11:00.461Z,2.60
2023-04-02T00:16:05.564Z,1.83
2023-04-02T00:18:35.150Z,2.10
2023-04-02T00:25:42.829Z,1.80
2023-04-02T00:28:14.879Z,1.90
2023-04-02T00:30:49.180Z,2.17
2023-04-02T00:33:21.389Z,1.87
2023-04-02T00:35:51.533Z,1.80
2023-04-02T00:38:23.968Z,1.60
2023-04-02T00:40:53.897Z,2.03
2023-04-02T00:43:22.847Z,1.77
2023-04-02T00:45:56.276Z,1.60
2023-04-02T00:48:46.511Z,1.87
2023-04-02T00:51:18.973Z,1.60
2023-04-02T00:53:48.792Z,1.73
2023-04-02T00:56:25.682Z,1.80
2023-04-02T00:59:21.221Z,1.67
2023-04-02T01:01:54.455Z,1.40
2023-04-02T01:04:34.555Z,1.70
2023-04-02T01:07:08.766Z,1.60
2023-04-02T01:10:02.459Z,1.80
2023-04-02T01:12:45.851Z,1.63
2023-04-02T01:15:20.846Z,1.80
2023-04-02T01:18:03.388Z,1.70
2023-04-02T01:21:01.882Z,2.20
2023-04-02T01:23:36.722Z,1.97
2023-04-02T01:26:15.229Z,2.07
2023-04-02T01:28:58.381Z,2.20
2023-04-02T01:31:29.207Z,2.00
2023-04-02T01:33:58.028Z,2.00
2023-04-02T01:36:33.628Z,2.27
2023-04-02T01:39:08.920Z,2.27
2023-04-02T01:41:43.006Z,2.00
2023-04-02T01:44:18.461Z,2.67
2023-04-02T01:46:50.103Z,3.03
2023-04-02T01:49:21.706Z,2.50
2023-04-02T01:51:53.752Z,2.60
2023-04-02T01:54:23.878Z,2.73
2023-04-02T01:56:52.802Z,2.73
2023-04-02T01:59:24.236Z,3.07
2023-04-02T02:02:02.244Z,2.80
2023-04-02T02:04:33.010Z,2.90
2023-04-02T02:07:02.594Z,2.73
2023-04-02T02:09:35.604Z,3.33
2023-04-02T02:12:05.307Z,3.10
2023-04-02T02:14:34.691Z,3.07
2023-04-02T02:17:04.352Z,2.50
2023-04-02T02:19:36.819Z,3.63
2023-04-02T02:22:12.074Z,3.40
2023-04-02T02:24:41.163Z,3.40
2023-04-02T02:27:43.528Z,3.10
2023-04-02T02:30:17.354Z,3.70
2023-04-02T02:32:55.590Z,3.83
2023-04-02T02:35:28.313Z,3.47
2023-04-02T02:38:04.932Z,3.73
2023-04-02T02:40:38.090Z,4.27
2023-04-02T02:43:11.421Z,4.33
2023-04-02T02:45:44.300Z,4.17
2023-04-02T02:48:16.435Z,4.70
2023-04-02T02:50:46.020Z,5.53
2023-04-02T02:53:22.042Z,4.70
2023-04-02T02:55:55.656Z,4.87
2023-04-02T02:58:31.446Z,4.73
2023-04-02T03:01:08.978Z,5.23
2023-04-02T03:03:40.650Z,4.47
2023-04-02T03:06:16.712Z,4.27
2023-04-02T03:08:54.989Z,4.50
2023-04-02T03:11:34.540Z,4.40
2023-04-02T03:14:14.669Z,4.93
2023-04-02T03:16:47.717Z,4.73
2023-04-02T03:19:27.363Z,4.53
2023-04-02T03:22:03.192Z,4.50
2023-04-02T03:24:41.582Z,4.83
2023-04-02T03:27:17.368Z,4.20
2023-04-02T03:29:52.591Z,4.50
2023-04-02T03:32:24.439Z,5.00
2023-04-02T03:34:56.523Z,4.50
2023-04-02T03:37:31.049Z,5.10
2023-04-02T03:40:04.641Z,4.80
2023-04-02T03:42:41.729Z,5.13
2023-04-02T03:45:16.470Z,4.67
2023-04-02T03:47:52.407Z,5.77
2023-04-02T03:50:27.213Z,4.20
2023-04-02T03:52:58.612Z,4.17
2023-04-02T03:55:30.925Z,4.07
2023-04-02T03:58:04.732Z,3.57
2023-04-02T04:00:41.448Z,4.07
2023-04-02T04:03:16.279Z,4.43
2023-04-02T04:05:49.493Z,3.70
2023-04-02T04:08:21.265Z,4.10
2023-04-02T04:10:53.807Z,5.27
2023-04-02T04:13:26.006Z,4.80
2023-04-02T04:15:59.537Z,4.50
2023-04-02T04:18:37.954Z,4.10
2023-04-02T04:21:29.997Z,4.20
2023-04-02T04:24:07.267Z,4.57
2023-04-02T04:26:44.167Z,4.67
2023-04-02T04:29:28.323Z,4.27
2023-04-02T04:31:57.334Z,4.33
2023-04-02T04:34:46.736Z,4.13
2023-04-02T04:37:25.282Z,3.87
2023-04-02T04:39:59.018Z,3.37
2023-04-02T04:42:31.571Z,3.97
2023-04-02T04:45:05.197Z,3.43
2023-04-02T04:47:37.923Z,3.30
2023-04-02T04:50:14.733Z,3.67
2023-04-02T04:52:44.448Z,3.33
2023-04-02T04:55:38.008Z,3.97
2023-04-02T04:58:16.322Z,3.00
2023-04-02T05:00:55.274Z,3.50
2023-04-02T05:03:31.221Z,4.17
2023-04-02T05:06:09.738Z,3.23
2023-04-02T05:08:45.378Z,2.85
2023-04-02T05:11:21.140Z,3.23
2023-04-02T05:13:54.420Z,3.17
2023-04-02T05:16:27.491Z,3.63
2023-04-02T05:19:03.785Z,3.07
2023-04-02T05:21:42.130Z,3.40
2023-04-02T05:24:34.752Z,3.97
2023-04-02T05:27:11.030Z,3.00
2023-04-02T05:29:45.267Z,3.70
2023-04-02T05:32:18.731Z,3.07
2023-04-02T05:34:51.685Z,2.90
2023-04-02T05:37:24.484Z,2.93
2023-04-02T05:39:56.941Z,3.63
2023-04-02T05:42:28.659Z,2.63
2023-04-02T05:45:21.482Z,3.00
2023-04-02T05:47:54.741Z,2.97
2023-04-02T05:50:31.677Z,3.00
2023-04-02T05:53:07.798Z,2.30
2023-04-02T05:55:46.824Z,2.47
2023-04-02T05:58:35.649Z,2.10
2023-04-02T06:01:21.095Z,1.90
2023-04-02T06:03:58.409Z,1.73
2023-04-02T06:06:43.588Z,2.57
2023-04-02T06:09:19.326Z,2.30
2023-04-02T06:11:53.796Z,2.20
2023-04-02T06:14:22.183Z,2.23
2023-04-02T06:16:50.646Z,2.00
2023-04-02T06:19:24.850Z,2.13
2023-04-02T06:21:59.594Z,2.27
2023-04-02T06:24:32.043Z,2.23
2023-04-02T06:27:06.348Z,2.30
2023-04-02T06:29:39.778Z,2.00
2023-04-02T06:32:12.541Z,2.13
2023-04-02T06:34:44.082Z,2.27
2023-04-02T06:37:22.748Z,2.53
2023-04-02T06:39:58.431Z,1.80
2023-04-02T06:42:32.008Z,2.08
2023-04-02T06:45:07.776Z,2.10
2023-04-02T06:47:53.467Z,2.30
2023-04-02T06:50:47.069Z,1.63
2023-04-02T06:53:23.097Z,2.70
2023-04-02T06:55:56.701Z,1.67
2023-04-02T06:58:29.017Z,2.60
2023-04-02T07:00:58.387Z,1.83
2023-04-02T07:03:43.013Z,2.23
2023-04-02T07:06:22.078Z,2.40
2023-04-02T07:09:17.844Z,2.27
2023-04-02T07:11:51.691Z,2.90
2023-04-02T07:14:21.040Z,3.83
2023-04-02T07:16:49.255Z,2.70
2023-04-02T07:19:20.492Z,2.33
2023-04-02T07:21:50.440Z,1.90
2023-04-02T07:24:20.870Z,2.08
2023-04-02T07:26:48.955Z,2.00
2023-04-02T07:29:19.927Z,1.80
2023-04-02T07:34:16.092Z,2.03
2023-04-02T07:36:44.101Z,2.97
2023-04-02T07:39:12.244Z,2.07
2023-04-02T07:41:53.116Z,2.07
2023-04-02T07:44:22.639Z,2.47
2023-04-02T07:46:50.740Z,2.23
2023-04-02T07:49:18.799Z,2.33
2023-04-02T07:51:47.481Z,2.40
2023-04-02T07:54:15.539Z,2.30
2023-04-02T07:56:43.752Z,2.57
2023-04-02T07:59:12.012Z,3.03
2023-04-02T08:01:43.136Z,2.30
2023-04-02T08:04:19.487Z,2.87
2023-04-02T08:06:48.002Z,3.30
2023-04-02T08:09:17.075Z,3.50
2023-04-02T08:11:46.642Z,2.93
2023-04-02T08:14:15.114Z,3.90
2023-04-02T08:16:49.963Z,3.73
2023-04-02T08:19:18.738Z,2.83
2023-04-02T08:21:48.141Z,3.03
2023-04-02T08:24:19.066Z,3.10
2023-04-02T08:26:47.540Z,2.90
2023-04-02T08:29:15.840Z,2.80
2023-04-02T08:31:44.036Z,3.60
2023-04-02T08:34:13.808Z,2.60
2023-04-02T08:36:45.031Z,3.10
2023-04-02T08:39:13.499Z,3.00
2023-04-02T08:41:46.869Z,2.40
2023-04-02T08:44:32.257Z,2.40
2023-04-02T08:47:04.179Z,3.83
2023-04-02T08:49:37.456Z,2.27
2023-04-02T08:52:05.624Z,2.33
2023-04-02T08:54:38.099Z,2.27
2023-04-02T08:57:16.464Z,1.83
2023-04-02T08:59:47.168Z,3.20
2023-04-02T09:02:28.633Z,3.25
2023-04-02T09:05:03.299Z,3.53
2023-04-02T09:07:33.662Z,1.87
2023-04-02T09:10:01.993Z,2.70
2023-04-02T09:12:32.727Z,1.83
2023-04-02T09:15:12.803Z,2.83
2023-04-02T09:17:53.110Z,2.40
2023-04-02T09:20:26.293Z,2.07
2023-04-02T09:22:56.720Z,1.83
2023-04-02T09:25:27.365Z,2.10
2023-04-02T09:27:58.098Z,2.58
2023-04-02T09:30:41.939Z,2.60
2023-04-02T09:33:10.883Z,2.40
2023-04-02T09:35:56.544Z,3.00
2023-04-02T09:38:29.034Z,1.90
2023-04-02T09:41:01.620Z,3.37
2023-04-02T09:43:31.120Z,2.30
2023-04-02T09:46:01.875Z,2.53
2023-04-02T09:48:33.636Z,3.25
2023-04-02T09:51:11.739Z,3.13
2023-04-02T09:53:42.602Z,2.50
2023-04-02T09:58:40.753Z,2.13
2023-04-02T10:01:27.762Z,2.17
2023-04-02T10:03:56.299Z,2.13
2023-04-02T10:06:26.979Z,2.43
2023-04-02T10:08:55.891Z,1.92
2023-04-02T10:11:36.572Z,2.37
2023-04-02T10:14:39.983Z,2.90
2023-04-02T10:17:15.477Z,2.10
2023-04-02T10:19:48.433Z,2.30
2023-04-02T10:22:19.720Z,2.33
2023-04-02T10:24:48.301Z,2.10
2023-04-02T10:27:28.851Z,2.40
2023-04-02T10:30:09.039Z,2.25
2023-04-02T10:32:42.020Z,2.00
2023-04-02T10:35:20.790Z,1.80
2023-04-02T10:38:17.301Z,2.17
2023-04-02T10:40:50.168Z,2.10
2023-04-02T10:43:49.620Z,1.60
2023-04-02T10:46:25.575Z,2.40
2023-04-02T10:49:03.718Z,1.90
2023-04-02T10:51:39.949Z,1.93
2023-04-02T10:54:28.054Z,3.13
2023-04-02T10:57:06.592Z,2.80
2023-04-02T10:59:38.215Z,2.17
2023-04-02T11:02:22.371Z,2.97
2023-04-02T11:04:55.982Z,1.90
2023-04-02T11:07:30.074Z,1.92
2023-04-02T11:10:01.015Z,2.13
2023-04-02T11:12:42.226Z,2.63
2023-04-02T11:15:17.744Z,2.40
2023-04-02T11:17:46.724Z,1.90
2023-04-02T11:21:04.023Z,2.17
2023-04-02T11:23:59.670Z,1.95
2023-04-02T11:26:41.221Z,2.33
2023-04-02T11:29:18.163Z,2.10
2023-04-02T11:31:47.308Z,2.60
2023-04-02T11:34:17.442Z,2.35
2023-04-02T11:37:09.591Z,2.03
2023-04-02T11:39:53.643Z,1.70
2023-04-02T11:42:31.662Z,2.47
2023-04-02T11:45:02.625Z,2.10
2023-04-02T11:47:31.126Z,1.88
2023-04-02T11:50:07.802Z,2.03
2023-04-02T11:52:52.174Z,2.20
2023-04-02T11:55:27.950Z,2.15
2023-04-02T11:58:24.854Z,2.40
2023-04-02T12:01:31.575Z,1.88
2023-04-02T12:04:34.808Z,2.40
2023-04-02T12:07:20.950Z,1.83
2023-04-02T12:09:52.215Z,2.00
2023-04-02T12:12:28.129Z,1.63
2023-04-02T12:14:58.974Z,1.52
2023-04-02T12:17:31.162Z,1.88
2023-04-02T12:20:04.362Z,1.88
2023-04-02T12:22:35.369Z,2.08
2023-04-02T12:25:07.415Z,3.13
2023-04-02T12:27:38.163Z,2.45
2023-04-02T12:30:17.807Z,1.80
2023-04-02T12:32:46.423Z,1.80
2023-04-02T12:35:29.427Z,2.13
2023-04-02T12:37:58.297Z,1.83
2023-04-02T12:40:27.193Z,2.58
2023-04-02T12:42:55.513Z,2.00
2023-04-02T12:45:29.284Z,2.58
2023-04-02T12:47:58.972Z,2.55
2023-04-02T12:50:27.461Z,2.15
2023-04-02T12:52:59.033Z,2.10
2023-04-02T12:55:28.424Z,2.20
2023-04-02T12:57:58.006Z,1.80
2023-04-02T13:00:36.030Z,1.80
2023-04-02T13:03:19.576Z,3.33
2023-04-02T13:05:52.345Z,2.67
2023-04-02T13:08:23.767Z,2.10
2023-04-02T13:10:57.845Z,1.98
2023-04-02T13:13:33.953Z,2.00
2023-04-02T13:16:22.929Z,3.13
2023-04-02T13:18:51.632Z,1.90
2023-04-02T13:21:28.697Z,2.75
2023-04-02T13:23:57.155Z,2.30
2023-04-02T13:26:27.698Z,2.38
2023-04-02T13:29:01.803Z,2.40
2023-04-02T13:31:33.293Z,2.17
2023-04-02T13:34:01.529Z,1.77
2023-04-02T13:36:29.930Z,2.78
2023-04-02T13:38:58.612Z,2.50
2023-04-02T13:41:29.133Z,2.40
2023-04-02T13:44:00.771Z,3.00
2023-04-02T13:46:33.842Z,2.70
2023-04-02T13:49:02.972Z,2.28
2023-04-02T13:51:37.449Z,2.22
2023-04-02T13:54:10.313Z,1.90
2023-04-02T13:56:38.590Z,2.13
2023-04-02T13:59:07.495Z,2.20
2023-04-02T14:01:37.560Z,2.20
2023-04-02T14:04:10.082Z,2.00
2023-04-02T14:07:13.457Z,1.80
2023-04-02T14:09:54.020Z,2.13
2023-04-02T14:12:35.808Z,1.95
2023-04-02T14:15:20.277Z,2.45
2023-04-02T14:18:04.805Z,2.65
2023-04-02T14:20:43.468Z,1.90
2023-04-02T14:23:32.091Z,2.28
2023-04-02T14:26:11.532Z,2.20
2023-04-02T14:28:51.172Z,2.05
2023-04-02T14:31:27.889Z,1.63
2023-04-02T14:34:04.314Z,1.70
2023-04-02T14:36:39.581Z,2.25
2023-04-02T14:39:40.183Z,1.85
2023-04-02T14:42:15.755Z,2.10
2023-04-02T14:44:50.203Z,1.73
2023-04-02T14:47:23.515Z,1.52
2023-04-02T14:49:58.113Z,2.35
2023-04-02T14:52:30.031Z,1.95
2023-04-02T14:55:03.608Z,2.40
2023-04-02T14:57:33.879Z,1.85
2023-04-02T15:00:05.677Z,1.80
2023-04-02T15:02:45.038Z,2.65
2023-04-02T15:05:20.132Z,1.90
2023-04-02T15:07:53.194Z,1.92
2023-04-02T15:10:27.395Z,1.90
2023-04-02T15:12:57.951Z,1.83
2023-04-02T15:15:40.497Z,2.38
2023-04-02T15:18:14.194Z,1.70
2023-04-02T15:20:54.732Z,2.10
2023-04-02T15:23:37.417Z,1.73
2023-04-02T15:26:16.911Z,1.30
2023-04-02T15:28:49.417Z,1.15
2023-04-02T15:31:18.525Z,1.67
2023-04-02T15:33:54.841Z,1.60
2023-04-02T15:36:44.631Z,1.52
2023-04-02T15:39:51.203Z,1.70
2023-04-02T15:42:23.167Z,1.58
2023-04-02T15:45:19.226Z,2.03
2023-04-02T15:48:07.469Z,2.33
2023-04-02T15:50:52.742Z,1.75
2023-04-02T15:53:34.574Z,1.58
2023-04-02T15:56:15.684Z,1.88
2023-04-02T15:59:11.701Z,2.20
2023-04-02T16:01:54.032Z,2.15
2023-04-02T16:04:52.584Z,2.00
2023-04-02T16:07:46.654Z,1.60
2023-04-02T16:10:33.883Z,1.88
2023-04-02T16:13:18.620Z,1.80
2023-04-02T16:15:52.699Z,1.90
2023-04-02T16:18:28.872Z,1.75
2023-04-02T16:21:02.461Z,2.17
2023-04-02T16:23:35.215Z,2.03
2023-04-02T16:26:18.340Z,1.85
2023-04-02T16:28:56.737Z,1.90
2023-04-02T16:31:31.512Z,2.15
2023-04-02T16:34:06.566Z,1.90
2023-04-02T16:36:44.421Z,1.92
2023-04-02T16:39:26.921Z,1.67
2023-04-02T16:42:06.450Z,1.75
2023-04-02T16:44:45.862Z,2.05
2023-04-02T16:47:30.889Z,1.85
2023-04-02T16:50:12.627Z,2.55
2023-04-02T16:53:14.988Z,2.35
2023-04-02T16:55:52.694Z,1.77
2023-04-02T16:58:35.574Z,1.90
2023-04-02T17:01:12.144Z,1.80
2023-04-02T17:04:06.671Z,2.30
2023-04-02T17:06:42.887Z,2.17
2023-04-02T17:10:25.983Z,1.77
2023-04-02T17:13:04.528Z,2.78
2023-04-02T17:15:39.103Z,2.10
2023-04-02T17:18:17.398Z,2.13
2023-04-02T17:20:45.796Z,3.22
2023-04-02T17:23:15.393Z,2.17
2023-04-02T17:25:51.515Z,2.28
2023-04-02T17:28:25.621Z,1.90
2023-04-02T17:30:58.639Z,2.15
2023-04-02T17:33:28.572Z,2.03
2023-04-02T17:36:26.591Z,1.90
2023-04-02T17:39:03.653Z,1.95
2023-04-02T17:41:37.975Z,2.28
2023-04-02T17:44:18.941Z,2.15
2023-04-02T17:46:59.714Z,2.30
2023-04-02T17:49:40.439Z,2.10
2023-04-02T17:52:18.733Z,2.60
2023-04-02T17:54:57.606Z,1.50
2023-04-02T17:57:40.555Z,2.15
2023-04-02T18:00:36.975Z,2.00
2023-04-02T18:03:37.097Z,1.55
2023-04-02T18:06:08.544Z,2.00
2023-04-02T18:08:45.651Z,2.95
2023-04-02T18:11:21.296Z,1.98
2023-04-02T18:13:58.682Z,2.30
2023-04-02T18:16:42.206Z,1.80
2023-04-02T18:19:17.192Z,3.10
2023-04-02T18:21:55.263Z,1.80
2023-04-02T18:24:51.675Z,1.88
2023-04-02T18:27:47.256Z,1.97
2023-04-02T18:30:23.376Z,2.10
2023-04-02T18:33:14.998Z,3.80
2023-04-02T18:35:55.952Z,2.87
2023-04-02T18:38:32.200Z,4.10
2023-04-02T18:41:15.774Z,3.70
2023-04-02T18:43:57.503Z,2.33
2023-04-02T18:46:34.161Z,2.63
2023-04-02T18:49:08.526Z,2.20
2023-04-02T18:51:40.353Z,2.03
2023-04-02T18:54:20.324Z,3.20
2023-04-02T18:56:48.444Z,2.00
2023-04-02T18:59:31.593Z,3.00
2023-04-02T19:02:05.816Z,2.30
2023-04-02T19:04:36.956Z,2.40
2023-04-02T19:09:40.392Z,4.40
2023-04-02T19:12:16.788Z,2.50
2023-04-02T19:14:44.847Z,2.40
2023-04-02T19:17:24.140Z,2.40
2023-04-02T19:20:05.464Z,1.77
2023-04-02T19:25:24.747Z,3.00
2023-04-02T19:28:13.211Z,3.33
2023-04-02T19:31:07.517Z,3.60
2023-04-02T19:33:57.535Z,4.77
2023-04-02T19:36:45.958Z,3.33
2023-04-02T19:39:55.497Z,2.37
2023-04-02T19:42:40.336Z,2.20
2023-04-02T19:45:22.913Z,2.13
2023-04-02T19:47:51.298Z,2.80
2023-04-02T19:50:19.641Z,2.33
2023-04-02T19:52:47.731Z,2.03
2023-04-02T19:55:16.122Z,1.93
2023-04-02T19:57:45.729Z,2.00
2023-04-02T20:00:15.758Z,2.50
2023-04-02T20:02:43.825Z,2.37
2023-04-02T20:05:12.289Z,1.80
2023-04-02T20:07:40.826Z,2.33
2023-04-02T20:10:10.399Z,1.90
2023-04-02T20:12:38.507Z,2.87
2023-04-02T20:15:09.447Z,2.33
2023-04-02T20:20:06.728Z,1.87
2023-04-02T20:22:34.849Z,1.90
2023-04-02T20:25:02.910Z,2.30
2023-04-02T20:27:31.943Z,2.33
2023-04-02T20:30:00.016Z,2.10
2023-04-02T20:32:30.126Z,1.97
2023-04-02T20:34:58.308Z,1.40
2023-04-02T20:37:26.563Z,2.03
2023-04-02T20:39:54.837Z,1.77
2023-04-02T20:42:22.909Z,1.80
2023-04-02T20:44:51.214Z,2.03
2023-04-02T20:47:19.444Z,1.70
2023-04-02T20:49:50.271Z,2.10
2023-04-02T20:52:18.823Z,1.75
2023-04-02T20:54:47.097Z,1.63
2023-04-02T20:57:15.159Z,1.60
2023-04-02T20:59:43.267Z,1.60
2023-04-02T21:02:13.241Z,1.77
2023-04-02T21:04:41.357Z,1.73
2023-04-02T21:07:10.809Z,2.20
2023-04-02T21:09:38.902Z,2.53
2023-04-02T21:12:11.513Z,2.07
2023-04-02T21:14:40.285Z,2.23
2023-04-02T21:17:08.853Z,2.03
2023-04-02T21:19:37.007Z,1.97
2023-04-02T21:22:05.121Z,1.73
2023-04-02T21:24:34.490Z,1.80
2023-04-02T21:27:02.590Z,1.50
2023-04-02T21:29:30.730Z,2.20
2023-04-02T21:32:01.443Z,2.13
2023-04-02T21:34:31.606Z,1.80
2023-04-02T21:37:00.120Z,2.00
2023-04-02T21:39:28.758Z,1.93
2023-04-02T21:41:58.126Z,2.17
2023-04-02T21:44:26.288Z,2.27
2023-04-02T21:46:54.553Z,2.10
2023-04-02T21:49:23.900Z,1.47
2023-04-02T21:51:52.603Z,1.70
2023-04-02T21:54:20.916Z,1.70
2023-04-02T21:56:49.516Z,2.37
2023-04-02T21:59:19.528Z,2.07
2023-04-02T22:01:49.723Z,1.70
2023-04-02T22:04:19.832Z,1.50
2023-04-02T22:06:48.734Z,1.77
2023-04-02T22:09:19.130Z,2.03
2023-04-02T22:11:48.889Z,1.60
2023-04-02T22:14:18.658Z,1.73
2023-04-02T22:16:46.758Z,1.83
2023-04-02T22:19:16.896Z,2.23
2023-04-02T22:21:45.947Z,1.63
2023-04-02T22:24:18.162Z,1.30
2023-04-02T22:26:46.895Z,1.20
2023-04-02T22:29:15.908Z,1.57
2023-04-02T22:31:45.667Z,1.50
2023-04-02T22:34:13.936Z,1.87
2023-04-02T22:36:42.415Z,1.67
2023-04-02T22:39:12.363Z,1.70
2023-04-02T22:41:41.075Z,1.93
2023-04-02T22:44:13.835Z,1.83
2023-04-02T22:46:41.926Z,1.83
2023-04-02T22:49:12.647Z,1.33
2023-04-02T22:51:40.930Z,1.80
2023-04-02T22:54:08.912Z,1.90
2023-04-02T22:56:37.569Z,1.60
2023-04-02T22:59:05.818Z,1.80
2023-04-02T23:01:36.023Z,1.57
2023-04-02T23:04:05.399Z,1.30
2023-04-02T23:06:35.073Z,1.40
2023-04-02T23:09:04.210Z,1.63
2023-04-02T23:11:35.583Z,1.33
2023-04-02T23:14:03.615Z,1.40
2023-04-02T23:16:31.706Z,1.63
2023-04-02T23:18:59.813Z,1.40
2023-04-02T23:21:54.189Z,1.60
2023-04-02T23:24:22.428Z,1.70
2023-04-02T23:26:50.487Z,1.33
2023-04-02T23:29:18.578Z,1.47
2023-04-02T23:31:46.893Z,1.33
2023-04-02T23:34:15.190Z,1.30
2023-04-02T23:36:43.185Z,1.87
2023-04-02T23:39:14.432Z,1.53
2023-04-02T23:41:44.403Z,1.60
2023-04-02T23:44:12.846Z,2.17
2023-04-02T23:46:41.004Z,1.40
2023-04-02T23:49:12.199Z,2.73
2023-04-02T23:54:08.949Z,1.23
2023-04-02T23:56:38.407Z,2.03
2023-04-02T23:59:06.688Z,2.20
